TimeCST,TemperatureF,Dew PointF,Humidity,Sea Level PressureIn,VisibilityMPH,Wind Direction,Wind SpeedMPH,Gust SpeedMPH,PrecipitationIn,Events,Conditions,WindDirDegrees,DateUTC
12:15 AM,30.2,29.3,96,29.85,-9999.0,Calm,Calm,-,N/A,,Unknown,0,2012-12-29 06:15:00
12:35 AM,30.4,29.5,96,29.84,-9999.0,Calm,Calm,-,0.01,,Unknown,0,2012-12-29 06:35:00
12:55 AM,30.2,29.3,96,29.84,-9999.0,Calm,Calm,-,0.01,,Overcast,0,2012-12-29 06:55:00
1:15 AM,30.0,29.3,97,29.84,-9999.0,Calm,Calm,-,N/A,,Overcast,0,2012-12-29 07:15:00
1:35 AM,29.8,29.1,97,29.84,-9999.0,Calm,Calm,-,N/A,,Unknown,0,2012-12-29 07:35:00
1:55 AM,30.0,29.3,97,29.85,-9999.0,Calm,Calm,-,N/A,,Overcast,0,2012-12-29 07:55:00
2:15 AM,30.0,29.3,97,29.85,-9999.0,NNW,3.5,-,N/A,,Overcast,330,2012-12-29 08:15:00
2:35 AM,30.0,29.3,97,29.86,-9999.0,NW,4.6,-,N/A,,Overcast,320,2012-12-29 08:35:00
2:55 AM,30.2,29.3,96,29.86,-9999.0,NW,4.6,-,N/A,,Overcast,320,2012-12-29 08:55:00
3:15 AM,30.6,29.7,96,29.86,-9999.0,NW,5.8,-,N/A,,Overcast,320,2012-12-29 09:15:00
3:35 AM,30.6,29.8,97,29.86,-9999.0,NW,5.8,-,N/A,,Overcast,320,2012-12-29 09:35:00
3:55 AM,30.7,30.0,97,29.86,-9999.0,NW,5.8,-,N/A,,Overcast,320,2012-12-29 09:55:00
4:15 AM,30.9,30.2,97,29.86,-9999.0,NW,5.8,-,N/A,,Overcast,320,2012-12-29 10:15:00
4:35 AM,30.9,30.2,97,29.86,-9999.0,NW,5.8,-,N/A,,Overcast,320,2012-12-29 10:35:00
4:55 AM,31.1,30.2,96,29.87,-9999.0,NW,6.9,-,N/A,,Overcast,320,2012-12-29 10:55:00
5:15 AM,31.1,30.2,96,29.87,-9999.0,NW,6.9,-,N/A,,Overcast,320,2012-12-29 11:15:00
5:35 AM,31.3,30.4,96,29.89,-9999.0,NW,5.8,-,N/A,,Overcast,310,2012-12-29 11:35:00
5:55 AM,31.5,30.6,96,29.90,-9999.0,NW,5.8,-,N/A,,Overcast,310,2012-12-29 11:55:00
6:15 AM,31.5,30.2,95,29.90,-9999.0,NW,4.6,-,N/A,,Overcast,310,2012-12-29 12:15:00
6:35 AM,31.6,30.4,95,29.90,-9999.0,NW,6.9,-,N/A,,Overcast,310,2012-12-29 12:35:00
6:55 AM,31.3,30.0,95,29.91,-9999.0,NW,8.1,-,N/A,,Overcast,320,2012-12-29 12:55:00
7:15 AM,31.1,29.8,95,29.91,-9999.0,NW,9.2,-,N/A,,Overcast,310,2012-12-29 13:15:00
7:35 AM,30.9,29.1,93,29.92,-9999.0,WNW,9.2,-,N/A,,Overcast,300,2012-12-29 13:35:00
7:55 AM,30.7,28.4,91,29.93,-9999.0,NW,9.2,16.1,N/A,,Overcast,310,2012-12-29 13:55:00
8:15 AM,30.4,28.0,91,29.94,-9999.0,WNW,8.1,-,N/A,,Overcast,300,2012-12-29 14:15:00
8:35 AM,30.2,27.9,91,29.96,-9999.0,WNW,9.2,-,N/A,,Overcast,300,2012-12-29 14:35:00
8:55 AM,30.4,27.9,90,29.97,-9999.0,WNW,10.4,-,N/A,,Overcast,290,2012-12-29 14:55:00
9:15 AM,30.2,27.3,89,29.97,-9999.0,WNW,13.8,-,N/A,,Unknown,290,2012-12-29 15:15:00
9:35 AM,30.2,26.4,86,29.98,-9999.0,WNW,11.5,-,N/A,,Overcast,300,2012-12-29 15:35:00
9:55 AM,30.0,26.6,87,30.00,-9999.0,WNW,12.7,-,N/A,,Overcast,300,2012-12-29 15:55:00
10:15 AM,29.8,25.7,85,30.01,-9999.0,WNW,13.8,-,N/A,,Overcast,300,2012-12-29 16:15:00
10:35 AM,30.2,26.1,85,30.01,-9999.0,WNW,13.8,-,N/A,,Unknown,290,2012-12-29 16:35:00
10:55 AM,29.7,25.2,83,30.01,-9999.0,WNW,15.0,19.6,N/A,,Unknown,290,2012-12-29 16:55:00
11:15 AM,29.3,24.1,81,30.02,-9999.0,WNW,16.1,21.9,N/A,,Overcast,290,2012-12-29 17:15:00
11:35 AM,28.9,23.7,81,30.02,-9999.0,WNW,12.7,-,N/A,,Overcast,300,2012-12-29 17:35:00
11:55 AM,28.8,24.1,83,30.02,-9999.0,WNW,12.7,-,N/A,,Overcast,290,2012-12-29 17:55:00
12:15 PM,27.9,23.4,83,30.02,-9999.0,WNW,17.3,21.9,N/A,,Overcast,290,2012-12-29 18:15:00
12:35 PM,27.7,22.1,80,30.03,-9999.0,WNW,17.3,20.7,N/A,,Overcast,290,2012-12-29 18:35:00
12:55 PM,27.9,21.7,78,30.03,-9999.0,WNW,12.7,-,N/A,,Overcast,290,2012-12-29 18:55:00
1:15 PM,27.9,21.2,76,30.04,-9999.0,WNW,13.8,20.7,N/A,,Overcast,290,2012-12-29 19:15:00
1:35 PM,27.3,21.9,80,30.04,-9999.0,WNW,16.1,21.9,N/A,,Overcast,290,2012-12-29 19:35:00
1:55 PM,27.1,21.9,81,30.05,-9999.0,WNW,19.6,23.0,N/A,,Overcast,290,2012-12-29 19:55:00
2:15 PM,26.6,21.7,82,30.06,-9999.0,WNW,18.4,23.0,N/A,,Unknown,290,2012-12-29 20:15:00
2:35 PM,26.1,22.6,87,30.07,-9999.0,WNW,13.8,19.6,N/A,,Unknown,290,2012-12-29 20:35:00
2:55 PM,25.7,22.1,86,30.08,-9999.0,WNW,15.0,19.6,N/A,,Unknown,300,2012-12-29 20:55:00
3:15 PM,25.9,21.6,84,30.09,-9999.0,WNW,15.0,21.9,N/A,,Overcast,300,2012-12-29 21:15:00
3:35 PM,26.1,20.3,79,30.10,-9999.0,WNW,16.1,23.0,N/A,,Overcast,300,2012-12-29 21:35:00
3:55 PM,26.1,20.7,80,30.11,-9999.0,WNW,11.5,18.4,N/A,,Overcast,290,2012-12-29 21:55:00
4:15 PM,26.4,21.0,80,30.12,-9999.0,WNW,13.8,-,N/A,,Overcast,300,2012-12-29 22:15:00
4:35 PM,26.4,21.6,82,30.12,-9999.0,WNW,13.8,-,N/A,,Overcast,290,2012-12-29 22:35:00
4:55 PM,26.1,22.1,85,30.13,-9999.0,WNW,12.7,-,N/A,,Unknown,290,2012-12-29 22:55:00
5:15 PM,26.4,21.2,81,30.15,-9999.0,WNW,12.7,-,N/A,,Overcast,300,2012-12-29 23:15:00
5:35 PM,26.6,21.0,79,30.15,-9999.0,WNW,12.7,-,N/A,,Overcast,290,2012-12-29 23:35:00
5:55 PM,26.4,21.0,80,30.17,-9999.0,WNW,17.3,-,N/A,,Overcast,290,2012-12-29 23:55:00
6:15 PM,25.7,21.0,82,30.18,-9999.0,West,15.0,-,N/A,,Overcast,280,2012-12-30 00:15:00
6:35 PM,25.2,20.7,83,30.19,-9999.0,West,16.1,21.9,N/A,,Overcast,280,2012-12-30 00:35:00
6:55 PM,24.8,20.3,83,30.20,-9999.0,West,17.3,25.3,N/A,,Overcast,280,2012-12-30 00:55:00
7:15 PM,24.6,20.1,83,30.21,-9999.0,West,18.4,24.2,N/A,,Overcast,280,2012-12-30 01:15:00
7:35 PM,23.7,19.2,83,30.22,-9999.0,West,16.1,-,N/A,,Overcast,280,2012-12-30 01:35:00
7:55 PM,23.7,18.7,81,30.24,-9999.0,WNW,12.7,-,N/A,,Overcast,290,2012-12-30 01:55:00
8:15 PM,23.4,18.9,83,30.24,-9999.0,WNW,13.8,-,N/A,,Overcast,290,2012-12-30 02:15:00
8:35 PM,22.8,18.3,83,30.24,-9999.0,WNW,16.1,21.9,N/A,,Overcast,300,2012-12-30 02:35:00
8:55 PM,22.5,18.3,84,30.26,-9999.0,West,10.4,19.6,N/A,,Overcast,280,2012-12-30 02:55:00
9:15 PM,21.2,16.9,83,30.26,-9999.0,West,15.0,-,N/A,,Overcast,270,2012-12-30 03:15:00
9:35 PM,21.4,17.2,84,30.28,-9999.0,West,11.5,-,N/A,,Overcast,270,2012-12-30 03:35:00
9:55 PM,21.2,17.2,85,30.29,-9999.0,WNW,12.7,18.4,N/A,,Overcast,290,2012-12-30 03:55:00
10:15 PM,21.2,17.1,84,30.29,-9999.0,WNW,12.7,-,N/A,,Overcast,300,2012-12-30 04:15:00
10:35 PM,21.2,16.9,83,30.29,-9999.0,WNW,15.0,-,N/A,,Overcast,300,2012-12-30 04:35:00
10:55 PM,19.6,15.6,85,30.30,-9999.0,West,9.2,-,N/A,,Overcast,280,2012-12-30 04:55:00
11:15 PM,17.4,13.6,85,30.30,-9999.0,West,9.2,-,N/A,,Unknown,270,2012-12-30 05:15:00
11:35 PM,16.5,13.1,86,30.30,-9999.0,West,6.9,-,N/A,,Unknown,270,2012-12-30 05:35:00
11:55 PM,13.8,10.6,87,30.30,-9999.0,West,5.8,-,N/A,,Unknown,270,2012-12-30 05:55:00